Time;durP1;ratioP1;P1;durP2;ratioP2;P2;SDS_P1;SDS_P2;PMS_P1;PMS_P2;Temp;Humidity;BMP_temperature;BMP_pressure;BME280_temperature;BME280_humidity;BME280_pressure;Samples;Min_cycle;Max_cycle;Signal;HPM_P1;HPM_P2
2023/02/26 00:01:42;;;;;;;14.23;6.60;;;0.10;99.90;;;;;;4359335;28;656621;-67
2023/02/26 00:04:30;;;;;;;13.63;6.67;;;0.10;99.90;;;;;;4388549;28;656680;-67
2023/02/26 00:07:17;;;;;;;12.67;6.23;;;0.10;99.90;;;;;;4383935;28;657344;-67
2023/02/26 00:10:05;;;;;;;15.83;6.73;;;0.10;99.90;;;;;;4398047;28;656231;-67
2023/02/26 00:12:53;;;;;;;10.35;5.78;;;0.20;99.90;;;;;;4384526;28;657555;-67
2023/02/26 00:15:41;;;;;;;12.43;6.07;;;0.10;99.90;;;;;;4380479;28;657220;-67
2023/02/26 00:18:30;;;;;;;10.00;5.67;;;0.20;99.90;;;;;;4410606;28;657341;-66
2023/02/26 00:21:18;;;;;;;11.03;6.30;;;0.10;62.50;;;;;;4371807;28;657141;-67
2023/02/26 00:24:07;;;;;;;11.75;6.80;;;0.10;93.50;;;;;;4389319;28;656995;-68
2023/02/26 00:26:54;;;;;;;10.03;5.03;;;0.10;96.90;;;;;;4398971;28;656230;-67
2023/02/26 00:29:42;;;;;;;12.37;6.47;;;0.10;99.90;;;;;;4374790;28;657289;-67
2023/02/26 00:32:29;;;;;;;15.57;6.80;;;0.00;51.80;;;;;;4407278;28;656690;-67
2023/02/26 00:35:19;;;;;;;15.23;6.53;;;0.10;60.60;;;;;;4381907;28;656681;-67
2023/02/26 00:38:06;;;;;;;16.80;7.27;;;0.00;60.50;;;;;;4380964;28;657177;-67
2023/02/26 00:40:55;;;;;;;17.20;7.67;;;0.00;77.80;;;;;;4405821;28;657224;-67
2023/02/26 00:43:43;;;;;;;15.47;7.50;;;0.00;82.80;;;;;;4387427;28;657316;-67
2023/02/26 00:46:36;;;;;;;21.47;7.83;;;0.00;96.00;;;;;;4382855;28;656900;-69
2023/02/26 00:49:27;;;;;;;19.03;8.10;;;0.10;94.80;;;;;;4390556;28;656610;-67
2023/02/26 00:52:20;;;;;;;18.33;8.23;;;0.00;72.50;;;;;;4371979;28;656683;-68
2023/02/26 00:55:07;;;;;;;14.40;7.00;;;0.10;58.50;;;;;;4386487;28;656345;-67
2023/02/26 00:57:55;;;;;;;17.27;7.00;;;0.10;1.00;;;;;;4403256;28;656573;-68
2023/02/26 01:00:42;;;;;;;23.37;8.20;;;0.10;1.00;;;;;;4398708;28;656530;-67
2023/02/26 01:03:32;;;;;;;20.93;7.67;;;0.10;1.00;;;;;;4393997;28;655708;-68
2023/02/26 01:06:20;;;;;;;16.37;7.83;;;0.10;1.00;;;;;;4412976;28;655139;-67
2023/02/26 01:09:13;;;;;;;18.97;7.27;;;0.10;1.00;;;;;;4373524;28;656966;-67
2023/02/26 01:12:02;;;;;;;13.13;6.93;;;0.10;1.00;;;;;;4365240;28;656081;-68
2023/02/26 01:14:51;;;;;;;15.50;7.40;;;0.10;1.00;;;;;;4410247;28;655662;-67
2023/02/26 01:17:41;;;;;;;20.53;7.70;;;0.10;1.00;;;;;;4377192;28;655658;-66
2023/02/26 01:20:30;;;;;;;16.40;7.70;;;0.10;1.00;;;;;;4378512;28;655714;-67
2023/02/26 01:23:20;;;;;;;15.20;7.83;;;0.10;1.00;;;;;;4370250;28;656211;-68
2023/02/26 01:26:12;;;;;;;16.00;7.77;;;0.10;1.00;;;;;;4387123;28;656312;-67
2023/02/26 01:29:00;;;;;;;14.45;7.78;;;0.10;1.00;;;;;;4367273;28;655628;-67
2023/02/26 01:31:49;;;;;;;17.63;7.20;;;0.10;1.00;;;;;;4375746;28;656349;-67
2023/02/26 01:34:39;;;;;;;18.73;8.27;;;0.10;1.00;;;;;;4380002;28;655710;-67
2023/02/26 01:37:29;;;;;;;14.40;8.00;;;0.00;1.00;;;;;;4376859;28;656163;-67
2023/02/26 01:40:35;;;;;;;13.77;7.23;;;0.10;1.00;;;;;;4374754;28;655389;-68
2023/02/26 01:43:26;;;;;;;15.07;7.43;;;0.10;1.00;;;;;;4365955;28;655446;-67
2023/02/26 01:46:16;;;;;;;13.47;7.10;;;0.10;1.00;;;;;;4394890;28;656217;-67
2023/02/26 01:49:04;;;;;;;14.00;6.83;;;0.10;1.00;;;;;;4371834;28;656036;-67
2023/02/26 01:51:53;;;;;;;13.60;6.73;;;0.10;1.00;;;;;;4386649;28;655315;-67
2023/02/26 01:54:40;;;;;;;12.43;6.38;;;0.10;1.00;;;;;;4386359;28;655894;-68
2023/02/26 01:57:27;;;;;;;13.03;7.60;;;0.10;1.00;;;;;;4405173;28;656632;-67
2023/02/26 02:00:18;;;;;;;14.20;6.90;;;0.10;1.00;;;;;;4393301;28;655794;-68
2023/02/26 02:03:06;;;;;;;13.50;7.20;;;0.00;1.00;;;;;;4373573;28;655351;-67
2023/02/26 02:05:55;;;;;;;13.10;6.63;;;0.00;1.00;;;;;;4396551;28;656470;-67
2023/02/26 02:08:43;;;;;;;16.70;7.53;;;0.00;1.00;;;;;;4381934;28;656670;-67
2023/02/26 02:11:30;;;;;;;13.77;6.60;;;-0.10;1.00;;;;;;4383324;28;656288;-68
2023/02/26 02:14:21;;;;;;;12.73;7.00;;;0.00;1.00;;;;;;4408739;28;657510;-68
2023/02/26 02:17:12;;;;;;;13.00;6.70;;;0.00;1.00;;;;;;4374326;28;655970;-68
2023/02/26 02:20:18;;;;;;;12.57;6.63;;;0.00;1.00;;;;;;4368938;28;655395;-67
2023/02/26 02:23:10;;;;;;;12.33;6.50;;;0.00;1.00;;;;;;4368459;28;655415;-68
2023/02/26 02:26:32;;;;;;;10.35;5.78;;;0.00;1.00;;;;;;4364920;28;656470;-67
2023/02/26 02:29:53;;;;;;;12.27;5.67;;;0.00;1.00;;;;;;4371437;28;655595;-67
2023/02/26 02:32:43;;;;;;;9.47;5.50;;;0.00;1.00;;;;;;4368389;28;655885;-68
2023/02/26 02:35:32;;;;;;;9.33;5.30;;;-0.10;1.00;;;;;;4394157;28;654625;-67
2023/02/26 02:38:21;;;;;;;11.47;5.80;;;-0.10;1.00;;;;;;4411994;28;655531;-67
2023/02/26 02:41:11;;;;;;;13.13;5.60;;;-0.10;1.00;;;;;;4387577;28;657336;-67
2023/02/26 02:44:00;;;;;;;10.93;5.43;;;-0.10;1.00;;;;;;4388688;28;656954;-67
2023/02/26 02:46:48;;;;;;;9.73;5.17;;;-0.10;1.00;;;;;;4387893;28;657263;-67
2023/02/26 02:49:41;;;;;;;10.17;5.27;;;-0.10;1.00;;;;;;4401622;28;655413;-68
2023/02/26 02:52:30;;;;;;;8.13;4.37;;;-0.20;1.00;;;;;;4374312;28;657163;-67
2023/02/26 02:55:18;;;;;;;7.73;4.27;;;-0.20;1.00;;;;;;4375727;28;655880;-68
2023/02/26 02:58:07;;;;;;;8.20;4.53;;;-0.30;1.00;;;;;;4374464;28;655493;-68
2023/02/26 03:01:01;;;;;;;8.67;4.27;;;-0.40;1.00;;;;;;4397642;28;656042;-68
2023/02/26 03:03:52;;;;;;;9.80;4.57;;;-0.40;1.00;;;;;;4388537;28;656146;-67
2023/02/26 03:06:40;;;;;;;6.17;3.80;;;-0.40;1.00;;;;;;4369186;28;655634;-67
2023/02/26 03:09:27;;;;;;;7.30;3.40;;;-0.40;1.00;;;;;;4374205;28;655877;-68
2023/02/26 03:12:15;;;;;;;7.97;3.73;;;-0.40;1.00;;;;;;4403571;28;655398;-68
2023/02/26 03:15:03;;;;;;;10.83;4.47;;;-0.40;1.00;;;;;;4398594;28;656305;-68
2023/02/26 03:17:54;;;;;;;8.83;3.97;;;-0.40;1.00;;;;;;4379429;28;657841;-69
2023/02/26 03:20:46;;;;;;;8.27;3.83;;;-0.50;1.00;;;;;;4376609;28;655967;-67
2023/02/26 03:23:36;;;;;;;6.47;4.30;;;-0.50;1.00;;;;;;4379739;28;655587;-67
2023/02/26 03:26:26;;;;;;;7.03;4.33;;;-0.60;1.00;;;;;;4379828;28;656145;-67
2023/02/26 03:29:16;;;;;;;5.93;4.00;;;-0.60;1.00;;;;;;4373005;28;656625;-67
2023/02/26 03:32:05;;;;;;;5.80;3.47;;;-0.60;1.00;;;;;;4371402;28;655698;-67
2023/02/26 03:34:54;;;;;;;8.83;3.70;;;-0.50;1.00;;;;;;4381460;28;655876;-67
2023/02/26 03:37:43;;;;;;;9.23;3.77;;;-0.60;1.00;;;;;;4372188;28;656674;-67
2023/02/26 03:40:34;;;;;;;6.13;3.40;;;-0.50;1.00;;;;;;4390295;28;655657;-69
2023/02/26 03:43:23;;;;;;;6.43;3.43;;;-0.50;1.00;;;;;;4376237;28;655904;-68
2023/02/26 03:46:13;;;;;;;6.77;3.00;;;-0.50;78.50;;;;;;4376380;28;655204;-68
2023/02/26 03:49:03;;;;;;;4.20;2.80;;;-0.60;27.40;;;;;;4377672;28;656749;-68
2023/02/26 03:51:50;;;;;;;5.10;2.87;;;-0.60;63.10;;;;;;4389384;28;656554;-69
2023/02/26 03:54:39;;;;;;;5.27;3.10;;;-0.60;99.90;;;;;;4400902;28;657238;-68
2023/02/26 03:57:27;;;;;;;5.07;2.80;;;-0.70;1.00;;;;;;4379849;28;656730;-67
2023/02/26 04:00:17;;;;;;;6.13;3.07;;;-0.70;1.00;;;;;;4400588;28;654995;-69
2023/02/26 04:03:08;;;;;;;6.80;2.93;;;-0.70;99.90;;;;;;4406602;28;655732;-67
2023/02/26 04:05:56;;;;;;;7.40;2.57;;;-0.60;1.00;;;;;;4352659;28;656893;-68
2023/02/26 04:08:43;;;;;;;4.23;2.00;;;-0.60;99.90;;;;;;4400336;28;655010;-69
2023/02/26 04:11:30;;;;;;;3.77;1.93;;;-0.60;27.20;;;;;;4373579;28;656617;-68
2023/02/26 04:14:19;;;;;;;3.80;2.17;;;-0.60;99.90;;;;;;4404929;28;657107;-68
2023/02/26 04:17:06;;;;;;;3.47;1.70;;;-0.60;99.90;;;;;;4372711;28;656575;-67
2023/02/26 04:19:53;;;;;;;3.80;1.65;;;-0.60;24.90;;;;;;4410384;28;657109;-67
2023/02/26 04:22:40;;;;;;;4.83;2.10;;;-0.70;1.00;;;;;;4382805;28;656519;-68
2023/02/26 04:25:28;;;;;;;3.97;2.03;;;-0.70;99.90;;;;;;4394877;28;656393;-67
2023/02/26 04:28:16;;;;;;;4.53;1.80;;;-0.70;99.90;;;;;;4398113;28;656760;-69
2023/02/26 04:31:04;;;;;;;3.53;1.70;;;-0.70;99.90;;;;;;4403758;28;656863;-68
2023/02/26 04:33:52;;;;;;;4.23;2.10;;;-0.70;1.00;;;;;;4385865;28;656754;-68
2023/02/26 04:36:39;;;;;;;4.40;2.27;;;-0.70;1.00;;;;;;4396336;28;655463;-67
2023/02/26 04:39:26;;;;;;;6.07;2.63;;;-0.60;1.00;;;;;;4382901;28;655706;-67
2023/02/26 04:42:13;;;;;;;7.47;2.73;;;-0.70;1.00;;;;;;4408757;28;656046;-67
2023/02/26 04:45:01;;;;;;;3.97;2.50;;;-0.70;99.90;;;;;;4379283;28;655511;-67
2023/02/26 04:47:49;;;;;;;5.27;2.87;;;-0.80;1.00;;;;;;4421748;28;657055;-67
2023/02/26 04:50:36;;;;;;;5.80;3.20;;;-0.70;1.00;;;;;;4385064;28;656206;-67
2023/02/26 04:53:24;;;;;;;6.60;3.50;;;-0.70;99.90;;;;;;4398814;28;655614;-69
2023/02/26 04:56:11;;;;;;;6.07;3.50;;;-0.70;1.00;;;;;;4376193;28;657065;-67
2023/02/26 04:58:58;;;;;;;6.67;3.20;;;-0.80;1.00;;;;;;4409022;28;656110;-67
2023/02/26 05:01:45;;;;;;;11.07;3.73;;;-0.80;99.90;;;;;;4397694;28;655409;-69
2023/02/26 05:04:34;;;;;;;9.27;3.27;;;-0.80;99.90;;;;;;4403610;28;658076;-67
2023/02/26 05:07:21;;;;;;;7.35;3.10;;;-0.80;99.90;;;;;;4381427;28;656956;-67
2023/02/26 05:10:10;;;;;;;8.17;3.20;;;-0.80;99.90;;;;;;4400661;28;657253;-68
2023/02/26 05:12:57;;;;;;;13.60;3.30;;;-0.80;1.00;;;;;;4397532;28;657325;-68
2023/02/26 05:15:44;;;;;;;14.00;3.50;;;-0.80;1.00;;;;;;4399596;28;656361;-67
2023/02/26 05:18:32;;;;;;;8.17;3.17;;;-0.80;1.00;;;;;;4374573;28;656701;-67
2023/02/26 05:21:21;;;;;;;7.60;3.40;;;-0.80;1.00;;;;;;4419839;28;655235;-68
2023/02/26 05:24:08;;;;;;;11.00;3.60;;;-0.90;9.40;;;;;;4383922;28;655905;-68
2023/02/26 05:26:55;;;;;;;4.70;2.70;;;-1.00;99.90;;;;;;4391052;28;656778;-68
2023/02/26 05:29:43;;;;;;;7.13;3.17;;;-1.00;1.00;;;;;;4402082;28;657338;-68
2023/02/26 05:32:31;;;;;;;9.07;3.43;;;-1.00;99.90;;;;;;4388911;28;655390;-68
2023/02/26 05:35:18;;;;;;;10.00;4.47;;;-1.00;1.00;;;;;;4399532;28;656760;-67
2023/02/26 05:38:07;;;;;;;7.87;3.70;;;-1.00;99.90;;;;;;4377082;28;656761;-69
2023/02/26 05:40:56;;;;;;;12.63;4.57;;;-1.00;99.90;;;;;;4390190;28;656085;-67
2023/02/26 05:43:43;;;;;;;11.10;4.87;;;-1.10;1.00;;;;;;4378994;28;658423;-67
2023/02/26 05:46:31;;;;;;;7.83;3.40;;;-1.10;1.00;;;;;;4372996;28;657281;-67
2023/02/26 05:49:18;;;;;;;11.73;4.78;;;-1.00;1.00;;;;;;4402978;28;655542;-67
2023/02/26 05:52:05;;;;;;;11.23;5.00;;;-1.00;1.00;;;;;;4373729;28;656511;-69
2023/02/26 05:54:54;;;;;;;10.67;5.03;;;-1.10;1.00;;;;;;4418478;28;657379;-68
2023/02/26 05:57:42;;;;;;;15.07;5.37;;;-1.10;1.00;;;;;;4374205;28;657556;-68
2023/02/26 06:00:29;;;;;;;8.57;4.70;;;-1.10;1.00;;;;;;4394896;28;656022;-68
2023/02/26 06:03:17;;;;;;;14.77;5.53;;;-1.10;1.00;;;;;;4384678;28;655899;-69
2023/02/26 06:06:04;;;;;;;18.73;5.13;;;-1.00;1.00;;;;;;4413484;28;656056;-68
2023/02/26 06:08:51;;;;;;;11.23;5.10;;;-1.10;1.00;;;;;;4379801;28;656870;-68
2023/02/26 06:11:40;;;;;;;15.63;5.70;;;-1.10;1.00;;;;;;4407538;28;657096;-68
2023/02/26 06:14:27;;;;;;;14.63;5.22;;;-1.10;99.90;;;;;;4385034;28;657321;-68
2023/02/26 06:17:15;;;;;;;11.87;4.83;;;-1.00;99.90;;;;;;4397593;28;657652;-69
2023/02/26 06:20:03;;;;;;;12.93;4.83;;;-0.90;99.90;;;;;;4394784;28;659400;-67
2023/02/26 06:22:50;;;;;;;16.97;5.77;;;-1.00;1.00;;;;;;4401554;28;657371;-69
2023/02/26 06:25:37;;;;;;;15.17;6.00;;;-1.00;99.90;;;;;;4407411;28;657912;-67
2023/02/26 06:28:27;;;;;;;14.63;5.10;;;-0.90;99.90;;;;;;4407079;28;657587;-69
2023/02/26 06:31:14;;;;;;;16.07;5.57;;;-0.80;1.00;;;;;;4410558;28;657492;-69
2023/02/26 06:34:01;;;;;;;15.30;6.40;;;-0.70;1.00;;;;;;4380794;28;656786;-69
2023/02/26 06:36:48;;;;;;;15.45;5.63;;;-0.60;1.00;;;;;;4407183;28;656388;-67
2023/02/26 06:39:36;;;;;;;17.57;5.87;;;-0.50;99.90;;;;;;4393111;28;657501;-67
2023/02/26 06:42:23;;;;;;;13.53;5.53;;;-0.30;99.90;;;;;;4408448;28;658235;-66
2023/02/26 06:45:12;;;;;;;12.93;5.07;;;-0.20;99.90;;;;;;4396585;28;657551;-69
2023/02/26 06:47:59;;;;;;;14.57;5.87;;;-0.20;1.00;;;;;;4395639;28;657587;-66
2023/02/26 06:50:46;;;;;;;9.83;4.33;;;-0.20;99.90;;;;;;4376517;28;657041;-73
2023/02/26 06:53:33;;;;;;;13.37;4.13;;;-0.20;1.00;;;;;;4413998;28;657356;-72
2023/02/26 06:56:21;;;;;;;12.07;4.90;;;-0.10;99.90;;;;;;4378325;28;656395;-73
2023/02/26 06:59:08;;;;;;;8.87;3.93;;;-0.10;1.00;;;;;;4399526;28;658572;-74
2023/02/26 07:01:57;;;;;;;8.80;3.03;;;-0.10;99.90;;;;;;4377035;28;655095;-70
2023/02/26 07:04:44;;;;;;;11.30;3.93;;;-0.10;1.00;;;;;;4399194;28;656782;-73
2023/02/26 07:07:31;;;;;;;10.13;3.33;;;0.00;99.90;;;;;;4382347;28;656384;-73
2023/02/26 07:10:20;;;;;;;8.77;3.73;;;-0.10;44.90;;;;;;4401504;28;657319;-73
2023/02/26 07:13:07;;;;;;;8.73;3.90;;;-0.30;1.00;;;;;;4375335;28;657715;-73
2023/02/26 07:15:54;;;;;;;8.17;4.80;;;-0.60;99.90;;;;;;4402677;28;655878;-72
2023/02/26 07:18:43;;;;;;;8.43;3.43;;;-0.70;23.30;;;;;;4384646;28;656866;-72
2023/02/26 07:21:30;;;;;;;3.17;1.90;;;-0.60;99.90;;;;;;4392516;28;656399;-71
2023/02/26 07:24:17;;;;;;;6.43;2.63;;;-0.50;1.00;;;;;;4420356;28;656786;-72
2023/02/26 07:27:05;;;;;;;7.50;2.70;;;-0.50;99.90;;;;;;4403458;28;655537;-70
2023/02/26 07:29:52;;;;;;;5.43;2.60;;;-0.40;99.90;;;;;;4406960;28;657945;-71
2023/02/26 07:32:40;;;;;;;6.00;2.00;;;-0.40;99.90;;;;;;4401219;28;657215;-70
2023/02/26 07:35:29;;;;;;;5.43;2.27;;;-0.50;1.00;;;;;;4410968;28;657609;-73
2023/02/26 07:38:16;;;;;;;5.47;2.37;;;-0.70;1.00;;;;;;4380736;28;655720;-73
2023/02/26 07:41:04;;;;;;;2.67;1.70;;;-0.70;1.00;;;;;;4406555;28;655913;-71
2023/02/26 07:43:51;;;;;;;3.43;2.10;;;-0.60;1.00;;;;;;4391143;28;655586;-72
2023/02/26 07:46:38;;;;;;;4.53;2.30;;;-0.60;1.00;;;;;;4410649;28;656284;-72
2023/02/26 07:49:25;;;;;;;4.25;1.88;;;-0.40;1.00;;;;;;4385347;28;655492;-69
2023/02/26 07:52:15;;;;;;;3.17;1.80;;;-0.40;1.00;;;;;;4392426;28;657181;-70
2023/02/26 07:55:02;;;;;;;4.93;1.55;;;-0.20;1.00;;;;;;4379434;28;656573;-71
2023/02/26 07:57:50;;;;;;;5.73;2.57;;;-0.30;99.90;;;;;;4403699;28;655402;-72
2023/02/26 08:00:37;;;;;;;7.57;2.93;;;-0.10;99.90;;;;;;4387195;28;657219;-70
2023/02/26 08:03:24;;;;;;;4.23;2.17;;;0.40;99.90;;;;;;4406088;28;656273;-72
2023/02/26 08:06:11;;;;;;;4.43;2.17;;;0.50;1.00;;;;;;4383862;28;655485;-70
2023/02/26 08:09:00;;;;;;;3.70;2.17;;;0.50;44.20;;;;;;4408203;28;654795;-70
2023/02/26 08:11:47;;;;;;;3.33;1.93;;;1.00;1.00;;;;;;4380758;28;655501;-72
2023/02/26 08:14:34;;;;;;;4.57;2.13;;;1.20;1.00;;;;;;4419843;28;654450;-71
2023/02/26 08:17:21;;;;;;;4.70;1.80;;;1.40;1.00;;;;;;4383917;28;654290;-72
2023/02/26 08:20:10;;;;;;;4.00;1.50;;;1.70;1.00;;;;;;4411011;28;654430;-72
2023/02/26 08:22:57;;;;;;;0.80;0.80;;;1.50;1.00;;;;;;4393871;28;655331;-71
2023/02/26 08:25:47;;;;;;;2.27;1.10;;;1.00;1.00;;;;;;4406305;28;654482;-70
2023/02/26 08:28:35;;;;;;;2.13;0.80;;;1.30;1.00;;;;;;4423767;28;654296;-72
2023/02/26 08:31:22;;;;;;;3.03;1.20;;;1.70;1.00;;;;;;4416001;28;655591;-71
2023/02/26 08:34:10;;;;;;;2.90;1.03;;;1.40;1.00;;;;;;4406619;28;654208;-71
2023/02/26 08:36:57;;;;;;;3.00;1.30;;;1.40;1.00;;;;;;4408321;28;654879;-72
2023/02/26 08:39:45;;;;;;;2.73;1.10;;;1.50;1.00;;;;;;4410015;28;654440;-70
2023/02/26 08:42:34;;;;;;;2.33;1.10;;;2.10;1.00;;;;;;4408379;28;655798;-71
2023/02/26 08:45:21;;;;;;;2.63;1.47;;;2.20;1.00;;;;;;4392620;28;654925;-73
2023/02/26 08:48:08;;;;;;;3.22;1.30;;;2.60;1.00;;;;;;4408816;28;654409;-73
2023/02/26 08:50:55;;;;;;;3.93;1.47;;;2.80;1.00;;;;;;4386393;28;654797;-70
2023/02/26 08:53:44;;;;;;;4.17;1.30;;;2.80;1.00;;;;;;4410808;28;654284;-72
2023/02/26 08:56:32;;;;;;;3.20;1.50;;;3.30;1.00;;;;;;4380196;28;654723;-72
2023/02/26 08:59:20;;;;;;;4.23;1.63;;;3.20;1.00;;;;;;4405945;28;654775;-74
2023/02/26 09:02:09;;;;;;;4.90;1.87;;;3.00;1.00;;;;;;4388537;28;654850;-73
2023/02/26 09:04:56;;;;;;;1.67;1.07;;;2.50;1.00;;;;;;4397047;28;654914;-73
2023/02/26 09:07:43;;;;;;;4.23;1.93;;;2.90;1.00;;;;;;4412503;28;655870;-72
2023/02/26 09:10:30;;;;;;;4.03;2.00;;;3.10;1.00;;;;;;4384817;28;654394;-72
2023/02/26 09:13:18;;;;;;;4.23;1.67;;;3.30;1.00;;;;;;4399614;28;655445;-73
2023/02/26 09:16:07;;;;;;;5.60;1.80;;;3.40;1.00;;;;;;4392943;28;654229;-70
2023/02/26 09:18:54;;;;;;;5.33;2.20;;;3.30;1.00;;;;;;4414203;28;654647;-72
2023/02/26 09:21:42;;;;;;;155.83;6.73;;;3.30;1.00;;;;;;4379806;28;654571;-73
2023/02/26 09:24:29;;;;;;;6.47;1.97;;;3.00;1.00;;;;;;4401003;28;657553;-72
2023/02/26 09:27:16;;;;;;;3.50;1.80;;;2.50;1.00;;;;;;4382918;28;655105;-75
2023/02/26 09:30:04;;;;;;;3.93;2.00;;;1.80;1.00;;;;;;4390379;28;654205;-72
2023/02/26 09:32:53;;;;;;;6.55;2.28;;;1.80;1.00;;;;;;4387142;28;654756;-71
2023/02/26 09:35:40;;;;;;;3.53;2.00;;;1.70;1.00;;;;;;4403095;28;655832;-71
2023/02/26 09:38:28;;;;;;;4.70;2.23;;;1.50;1.00;;;;;;4407656;28;655695;-72
2023/02/26 09:41:17;;;;;;;3.80;2.07;;;1.40;1.00;;;;;;4408111;28;654398;-70
2023/02/26 09:44:10;;;;;;;5.23;2.57;;;0.80;1.00;;;;;;4409901;28;654551;-74
2023/02/26 09:47:01;;;;;;;6.93;2.67;;;0.70;1.00;;;;;;4386452;28;654577;-74
2023/02/26 09:49:53;;;;;;;6.63;2.70;;;0.80;1.00;;;;;;4369483;28;654805;-73
2023/02/26 09:52:41;;;;;;;4.77;2.53;;;1.00;1.00;;;;;;4370282;28;654820;-70
2023/02/26 09:55:30;;;;;;;4.60;2.10;;;1.00;1.00;;;;;;4405556;28;655886;-73
2023/02/26 09:58:19;;;;;;;6.77;2.07;;;1.00;1.00;;;;;;4378797;28;655372;-74
2023/02/26 10:01:09;;;;;;;3.87;1.90;;;1.20;1.00;;;;;;4369979;28;654606;-74
2023/02/26 10:04:11;;;;;;;5.97;2.40;;;1.40;1.00;;;;;;4385485;28;655092;-70
2023/02/26 10:07:08;;;;;;;4.23;2.30;;;1.70;1.00;;;;;;4384898;28;655988;-73
2023/02/26 10:10:09;;;;;;;5.83;2.33;;;1.90;1.00;;;;;;4370972;28;654408;-70
2023/02/26 10:12:59;;;;;;;5.13;2.30;;;2.10;1.00;;;;;;4363744;28;654955;-72
2023/02/26 10:15:46;;;;;;;4.73;2.30;;;1.80;1.00;;;;;;4373799;28;654910;-71
2023/02/26 10:18:35;;;;;;;5.00;2.10;;;1.70;1.00;;;;;;4411844;28;655479;-73
2023/02/26 10:21:25;;;;;;;3.77;2.30;;;1.50;1.00;;;;;;4378948;28;655530;-71
2023/02/26 10:24:18;;;;;;;4.65;2.45;;;1.60;1.00;;;;;;4401610;28;655185;-73
2023/02/26 10:27:06;;;;;;;5.17;2.23;;;1.90;1.00;;;;;;4379559;28;656077;-70
2023/02/26 10:30:02;;;;;;;6.03;2.40;;;2.30;1.00;;;;;;4400394;28;655626;-73
2023/02/26 10:32:54;;;;;;;8.00;3.13;;;2.60;1.00;;;;;;4377498;28;654428;-72
2023/02/26 10:35:44;;;;;;;6.60;3.13;;;3.70;1.00;;;;;;4391653;28;654166;-71
2023/02/26 10:38:32;;;;;;;6.30;2.30;;;3.20;1.00;;;;;;4381961;28;655790;-73
2023/02/26 10:41:22;;;;;;;2.73;1.60;;;3.20;1.00;;;;;;4406048;28;655587;-73
2023/02/26 10:44:15;;;;;;;4.03;1.80;;;2.30;1.00;;;;;;4385044;28;654657;-71
2023/02/26 10:47:06;;;;;;;3.07;1.93;;;1.40;1.00;;;;;;4388569;28;655568;-72
2023/02/26 10:49:54;;;;;;;2.67;1.10;;;1.20;1.00;;;;;;4376223;28;654840;-73
2023/02/26 10:52:42;;;;;;;5.25;1.65;;;0.90;1.00;;;;;;4389388;28;654249;-73
2023/02/26 10:55:33;;;;;;;3.60;1.60;;;0.90;1.00;;;;;;4397758;28;654128;-72
2023/02/26 10:58:23;;;;;;;3.07;1.47;;;1.00;1.00;;;;;;4353206;28;654591;-72
2023/02/26 11:01:14;;;;;;;3.77;1.90;;;1.10;1.00;;;;;;4388926;28;653995;-73
2023/02/26 11:04:03;;;;;;;4.00;1.80;;;1.30;1.00;;;;;;4391826;28;654196;-71
2023/02/26 11:06:52;;;;;;;3.72;1.67;;;1.40;1.00;;;;;;4380708;28;654698;-70
2023/02/26 11:09:42;;;;;;;2.73;1.50;;;1.50;1.00;;;;;;4396857;28;654625;-73
2023/02/26 11:12:30;;;;;;;4.07;1.60;;;1.60;1.00;;;;;;4373554;28;654734;-72
2023/02/26 11:15:20;;;;;;;3.10;1.60;;;1.90;1.00;;;;;;4409642;28;655430;-73
2023/02/26 11:18:08;;;;;;;3.65;1.65;;;2.00;1.00;;;;;;4379099;28;655053;-73
2023/02/26 11:20:57;;;;;;;3.23;1.80;;;1.90;1.00;;;;;;4379848;28;655267;-73
2023/02/26 11:23:44;;;;;;;2.03;1.33;;;1.80;1.00;;;;;;4407876;28;654200;-72
2023/02/26 11:26:32;;;;;;;6.27;2.07;;;2.20;1.00;;;;;;4380967;28;654397;-72
2023/02/26 11:29:21;;;;;;;4.40;1.90;;;2.70;1.00;;;;;;4397950;28;654506;-71
2023/02/26 11:32:16;;;;;;;8.73;3.53;;;3.50;1.00;;;;;;4406109;28;653951;-70
2023/02/26 11:35:03;;;;;;;9.17;3.93;;;4.50;1.00;;;;;;4378844;28;654803;-71
2023/02/26 11:37:54;;;;;;;4.77;2.63;;;5.10;1.00;;;;;;4383790;28;655018;-70
2023/02/26 11:40:41;;;;;;;3.70;2.17;;;4.90;1.00;;;;;;4387583;28;654502;-73
2023/02/26 11:43:35;;;;;;;1.90;1.40;;;4.40;1.00;;;;;;4404639;28;654225;-73
2023/02/26 11:46:23;;;;;;;3.43;1.73;;;3.70;1.00;;;;;;4393288;28;654665;-72
2023/02/26 11:49:12;;;;;;;18.35;5.00;;;3.50;1.00;;;;;;4382824;28;654646;-71
2023/02/26 11:52:17;;;;;;;9.27;3.67;;;3.20;1.00;;;;;;4398146;28;655182;-73
2023/02/26 11:55:06;;;;;;;6.20;2.37;;;2.60;1.00;;;;;;4375165;28;654454;-73
2023/02/26 11:57:54;;;;;;;5.83;2.20;;;2.40;1.00;;;;;;4389270;28;654454;-73
2023/02/26 12:00:41;;;;;;;8.27;2.40;;;2.30;1.00;;;;;;4381518;28;654777;-74
2023/02/26 12:03:32;;;;;;;6.03;2.47;;;1.70;1.00;;;;;;4400583;28;654506;-72
2023/02/26 12:06:23;;;;;;;4.27;1.73;;;1.80;1.00;;;;;;4389288;28;654522;-73
2023/02/26 12:09:11;;;;;;;5.17;2.27;;;2.10;1.00;;;;;;4370984;28;654106;-72
2023/02/26 12:12:11;;;;;;;3.30;2.00;;;2.10;1.00;;;;;;4409281;28;655117;-73
2023/02/26 12:15:11;;;;;;;3.75;2.13;;;1.80;1.00;;;;;;4389934;28;654435;-74
2023/02/26 12:18:27;;;;;;;6.00;2.83;;;1.40;1.00;;;;;;4377365;28;654242;-73
2023/02/26 12:21:27;;;;;;;5.87;2.40;;;1.90;1.00;;;;;;4377280;28;654486;-73
2023/02/26 12:24:34;;;;;;;4.77;2.53;;;1.80;1.00;;;;;;4389219;28;654480;-72
2023/02/26 12:27:26;;;;;;;4.83;2.73;;;1.80;1.00;;;;;;4378964;28;655075;-73
2023/02/26 12:30:32;;;;;;;7.30;3.20;;;1.60;1.00;;;;;;4368781;28;655107;-74
2023/02/26 12:33:25;;;;;;;9.37;3.17;;;1.30;1.00;;;;;;4376531;28;655308;-73
2023/02/26 12:36:20;;;;;;;5.70;2.70;;;1.30;1.00;;;;;;4370137;28;654498;-74
2023/02/26 12:39:17;;;;;;;7.07;3.50;;;1.40;1.00;;;;;;4354358;28;654775;-73
2023/02/26 12:42:11;;;;;;;8.00;2.93;;;1.50;1.00;;;;;;4377696;28;655347;-73
2023/02/26 12:45:12;;;;;;;12.40;4.23;;;1.80;1.00;;;;;;4383693;28;655019;-72
2023/02/26 12:48:16;;;;;;;7.37;2.87;;;1.90;1.00;;;;;;4374978;28;656043;-72
2023/02/26 12:51:07;;;;;;;8.93;3.30;;;2.10;1.00;;;;;;4384173;28;654988;-72
2023/02/26 12:54:06;;;;;;;5.13;2.47;;;2.30;1.00;;;;;;4396569;28;654546;-73
2023/02/26 12:57:26;;;;;;;32.03;10.53;;;2.50;1.00;;;;;;4382075;28;655471;-73
2023/02/26 13:00:20;;;;;;;7.60;3.60;;;2.40;1.00;;;;;;4390616;28;656601;-73
2023/02/26 13:03:48;;;;;;;14.60;4.20;;;2.30;1.00;;;;;;4385308;28;655675;-73
2023/02/26 13:06:50;;;;;;;10.23;3.40;;;2.40;1.00;;;;;;4357593;28;655659;-71
2023/02/26 13:09:42;;;;;;;6.53;2.80;;;2.40;1.00;;;;;;4360927;28;655906;-72
2023/02/26 13:12:37;;;;;;;9.90;2.97;;;2.60;1.00;;;;;;4393452;28;654499;-72
2023/02/26 13:15:41;;;;;;;5.00;2.60;;;2.70;1.00;;;;;;4382328;28;655073;-71
2023/02/26 13:18:32;;;;;;;8.40;3.37;;;2.90;1.00;;;;;;4395198;28;655129;-71
2023/02/26 13:21:20;;;;;;;6.47;2.80;;;3.00;1.00;;;;;;4382673;28;654909;-72
2023/02/26 13:24:11;;;;;;;8.67;4.27;;;3.30;1.00;;;;;;4371347;28;655047;-71
2023/02/26 13:26:58;;;;;;;22.10;5.97;;;3.10;1.00;;;;;;4382658;28;654672;-72
2023/02/26 13:29:48;;;;;;;19.63;6.83;;;2.80;1.00;;;;;;4387105;28;655099;-72
2023/02/26 13:32:35;;;;;;;25.48;8.23;;;2.50;1.00;;;;;;4387645;28;656826;-71
2023/02/26 13:35:27;;;;;;;10.67;4.93;;;2.10;1.00;;;;;;4409867;28;656249;-73
2023/02/26 13:38:17;;;;;;;21.33;6.70;;;1.70;1.00;;;;;;4391485;28;655704;-73
2023/02/26 13:41:09;;;;;;;15.47;4.87;;;1.50;1.00;;;;;;4384006;28;655868;-73
2023/02/26 13:44:11;;;;;;;10.63;4.43;;;1.50;1.00;;;;;;4369150;28;655813;-73
2023/02/26 13:47:15;;;;;;;12.47;4.30;;;1.50;1.00;;;;;;4385341;28;655412;-72
2023/02/26 13:50:12;;;;;;;7.53;3.30;;;1.30;1.00;;;;;;4360534;28;655344;-73
2023/02/26 13:53:03;;;;;;;8.33;3.70;;;1.40;1.00;;;;;;4413150;28;654322;-71
2023/02/26 13:55:52;;;;;;;6.67;3.03;;;1.40;1.00;;;;;;4385332;28;654686;-72
2023/02/26 13:58:40;;;;;;;6.23;3.17;;;1.30;1.00;;;;;;4412749;28;654546;-73
2023/02/26 14:01:28;;;;;;;5.63;3.13;;;1.30;1.00;;;;;;4378603;28;655181;-74
2023/02/26 14:04:25;;;;;;;8.23;3.40;;;1.30;1.00;;;;;;4388162;28;654865;-72
2023/02/26 14:07:13;;;;;;;6.03;3.13;;;1.00;1.00;;;;;;4359902;28;655425;-72
2023/02/26 14:10:01;;;;;;;5.90;2.93;;;0.90;1.00;;;;;;4383548;28;654861;-72
2023/02/26 14:13:01;;;;;;;7.40;3.10;;;0.60;1.00;;;;;;4397126;28;654699;-73
2023/02/26 14:15:50;;;;;;;6.30;2.87;;;0.50;1.00;;;;;;4372875;28;654555;-73
2023/02/26 14:18:41;;;;;;;6.83;3.53;;;0.30;1.00;;;;;;4392791;28;655088;-72
2023/02/26 14:21:38;;;;;;;7.27;3.37;;;0.40;1.00;;;;;;4376478;28;654873;-73
2023/02/26 14:24:35;;;;;;;8.57;3.27;;;0.40;1.00;;;;;;4349200;28;654439;-71
2023/02/26 14:27:30;;;;;;;6.50;2.77;;;0.50;1.00;;;;;;4383090;28;655437;-70
2023/02/26 14:30:25;;;;;;;6.57;3.37;;;0.50;1.00;;;;;;4360735;28;655549;-70
2023/02/26 14:33:15;;;;;;;10.37;3.50;;;0.50;1.00;;;;;;4359555;28;655334;-71
2023/02/26 14:36:02;;;;;;;8.40;3.90;;;0.60;1.00;;;;;;4382484;28;656065;-71
2023/02/26 14:38:51;;;;;;;8.80;3.57;;;0.60;1.00;;;;;;4401625;28;655191;-71
2023/02/26 14:41:40;;;;;;;9.27;3.67;;;0.60;1.00;;;;;;4376728;28;655163;-70
2023/02/26 14:44:28;;;;;;;10.70;3.90;;;0.60;1.00;;;;;;4381881;28;656648;-71
2023/02/26 14:47:15;;;;;;;7.40;3.60;;;0.50;1.00;;;;;;4381931;28;655435;-71